CheckWX is a tool to help pilots better visualize weather data.  It is not intended as a substitute for an official pre-flight weather briefing.

01:20:06 UTC

KMAO METAR
Marion County Airport
Marion, South Carolina, USA
Current

25 mins ago

KMAO 200055Z AUTO 11005KT 10SM -RA SCT050 SCT065 BKN070 22/21 A3008 RMK AO2 P0003
Observed
Aug-20 @ 00:55 UTC
Wind
  • 110° at 5 KTS
Visibility
10 SM
Flight Rules
VFR
Conditions
Light Rain
Cloud Levels
  • Scattered at 5,000' AGL
  • Scattered at 6,500' AGL
  • Broken at 7,000' AGL
Temperature
22°C / 72°F
Dewpoint
21°C / 70°F
Humidity
94%
Altimeter
30.08" Hg
Pressure
1018.62 hPa
Current Rain
0.03"
Previous

45 mins ago

KMAO 200035Z AUTO 00000KT 7SM RA SCT050 SCT065 BKN075 24/21 A3007 RMK AO2 P0001
Observed
Aug-20 @ 00:35 UTC
Visibility
7 SM
Flight Rules
VFR
Conditions
Rain
Cloud Levels
  • Scattered at 5,000' AGL
  • Scattered at 6,500' AGL
  • Broken at 7,500' AGL
Temperature
24°C / 75°F
Dewpoint
21°C / 70°F
Humidity
83%
Altimeter
30.07" Hg
Pressure
1018.32 hPa
Current Rain
0.01"
Previous

1 hour ago

KMAO 200015Z AUTO 19003KT 10SM SCT110 26/20 A3006 RMK AO2
Observed
Aug-20 @ 00:15 UTC
Wind
  • 190° at 3 KTS
Visibility
10 SM
Flight Rules
VFR
Cloud Levels
  • Scattered at 11,000' AGL
Temperature
26°C / 79°F
Dewpoint
20°C / 68°F
Humidity
70%
Altimeter
30.06" Hg
Pressure
1017.92 hPa